sensor_id;sensor_type;location;lat;lon;timestamp;pressure;altitude;pressure_sealevel;temperature;humidity
13604;BME280;24578;48.264;11.436;2023-06-14T00:03:03;95693.88;;;10.94;100.00
13604;BME280;24578;48.264;11.436;2023-06-14T00:06:25;95697.41;;;10.93;100.00
13604;BME280;24578;48.264;11.436;2023-06-14T00:09:47;95693.56;;;10.87;100.00
13604;BME280;24578;48.264;11.436;2023-06-14T00:13:09;95696.41;;;10.84;100.00
13604;BME280;24578;48.264;11.436;2023-06-14T00:16:31;95686.19;;;10.82;100.00
13604;BME280;24578;48.264;11.436;2023-06-14T00:19:54;95700.47;;;10.77;100.00
13604;BME280;24578;48.264;11.436;2023-06-14T00:23:18;95693.41;;;10.68;100.00
13604;BME280;24578;48.264;11.436;2023-06-14T00:26:40;95692.63;;;10.67;100.00
13604;BME280;24578;48.264;11.436;2023-06-14T00:30:01;95687.81;;;10.62;100.00
13604;BME280;24578;48.264;11.436;2023-06-14T00:33:23;95691.59;;;10.58;100.00
13604;BME280;24578;48.264;11.436;2023-06-14T00:36:46;95686.91;;;10.52;100.00
13604;BME280;24578;48.264;11.436;2023-06-14T00:40:07;95687.28;;;10.47;100.00
13604;BME280;24578;48.264;11.436;2023-06-14T00:43:29;95687.53;;;10.44;100.00
13604;BME280;24578;48.264;11.436;2023-06-14T00:46:51;95690.47;;;10.40;100.00
13604;BME280;24578;48.264;11.436;2023-06-14T00:50:13;95680.97;;;10.40;100.00
13604;BME280;24578;48.264;11.436;2023-06-14T00:53:35;95689.03;;;10.35;100.00
13604;BME280;24578;48.264;11.436;2023-06-14T00:56:57;95694.34;;;10.34;100.00
13604;BME280;24578;48.264;11.436;2023-06-14T01:00:19;95696.25;;;10.32;100.00
13604;BME280;24578;48.264;11.436;2023-06-14T01:03:41;95692.16;;;10.29;100.00
13604;BME280;24578;48.264;11.436;2023-06-14T01:11:12;95697.22;;;10.19;100.00
13604;BME280;24578;48.264;11.436;2023-06-14T01:14:38;95687.81;;;10.18;100.00
13604;BME280;24578;48.264;11.436;2023-06-14T01:18:00;95690.06;;;10.12;100.00
13604;BME280;24578;48.264;11.436;2023-06-14T01:21:25;95687.97;;;10.05;100.00
13604;BME280;24578;48.264;11.436;2023-06-14T01:24:47;95681.41;;;10.01;100.00
13604;BME280;24578;48.264;11.436;2023-06-14T01:28:10;95681.66;;;9.98;100.00
13604;BME280;24578;48.264;11.436;2023-06-14T01:31:34;95676.56;;;9.97;100.00
13604;BME280;24578;48.264;11.436;2023-06-14T01:35:02;95682.00;;;9.94;100.00
13604;BME280;24578;48.264;11.436;2023-06-14T01:38:26;95677.31;;;9.87;100.00
13604;BME280;24578;48.264;11.436;2023-06-14T01:41:49;95690.38;;;9.86;100.00
13604;BME280;24578;48.264;11.436;2023-06-14T01:45:12;95682.94;;;9.81;100.00
13604;BME280;24578;48.264;11.436;2023-06-14T01:48:35;95686.72;;;9.77;100.00
13604;BME280;24578;48.264;11.436;2023-06-14T01:51:57;95680.97;;;9.73;100.00
13604;BME280;24578;48.264;11.436;2023-06-14T01:55:19;95685.31;;;9.73;100.00
13604;BME280;24578;48.264;11.436;2023-06-14T01:58:43;95682.38;;;9.66;100.00
13604;BME280;24578;48.264;11.436;2023-06-14T02:02:05;95680.97;;;9.62;100.00
13604;BME280;24578;48.264;11.436;2023-06-14T02:05:26;95685.09;;;9.65;100.00
13604;BME280;24578;48.264;11.436;2023-06-14T02:08:48;95678.03;;;9.55;100.00
13604;BME280;24578;48.264;11.436;2023-06-14T02:12:10;95687.91;;;9.50;100.00
13604;BME280;24578;48.264;11.436;2023-06-14T02:15:32;95686.50;;;9.46;100.00
13604;BME280;24578;48.264;11.436;2023-06-14T02:18:57;95679.81;;;9.43;100.00
13604;BME280;24578;48.264;11.436;2023-06-14T02:22:19;95679.34;;;9.38;100.00
13604;BME280;24578;48.264;11.436;2023-06-14T02:25:43;95677.00;;;9.35;100.00
13604;BME280;24578;48.264;11.436;2023-06-14T02:29:06;95674.88;;;9.29;100.00
13604;BME280;24578;48.264;11.436;2023-06-14T02:32:30;95685.47;;;9.26;100.00
13604;BME280;24578;48.264;11.436;2023-06-14T02:35:53;95679.91;;;9.19;100.00
13604;BME280;24578;48.264;11.436;2023-06-14T02:39:14;95680.97;;;9.17;100.00
13604;BME280;24578;48.264;11.436;2023-06-14T02:42:36;95679.53;;;9.12;100.00
13604;BME280;24578;48.264;11.436;2023-06-14T02:45:58;95679.09;;;9.07;100.00
13604;BME280;24578;48.264;11.436;2023-06-14T02:49:20;95685.41;;;9.03;100.00
13604;BME280;24578;48.264;11.436;2023-06-14T02:52:42;95688.94;;;9.02;100.00
13604;BME280;24578;48.264;11.436;2023-06-14T02:56:06;95678.97;;;8.97;100.00
13604;BME280;24578;48.264;11.436;2023-06-14T02:59:27;95686.00;;;8.95;100.00
13604;BME280;24578;48.264;11.436;2023-06-14T03:02:49;95688.91;;;8.91;100.00
13604;BME280;24578;48.264;11.436;2023-06-14T03:06:13;95685.75;;;8.87;100.00
13604;BME280;24578;48.264;11.436;2023-06-14T03:09:36;95686.78;;;8.84;100.00
13604;BME280;24578;48.264;11.436;2023-06-14T03:12:58;95684.41;;;8.81;100.00
13604;BME280;24578;48.264;11.436;2023-06-14T03:16:20;95695.69;;;8.80;100.00
13604;BME280;24578;48.264;11.436;2023-06-14T03:19:43;95695.69;;;8.80;100.00
13604;BME280;24578;48.264;11.436;2023-06-14T03:23:05;95696.63;;;8.79;100.00
13604;BME280;24578;48.264;11.436;2023-06-14T03:26:28;95706.00;;;8.80;100.00
13604;BME280;24578;48.264;11.436;2023-06-14T03:29:49;95709.53;;;8.79;100.00
13604;BME280;24578;48.264;11.436;2023-06-14T03:33:11;95711.16;;;8.80;100.00
13604;BME280;24578;48.264;11.436;2023-06-14T03:36:33;95711.66;;;8.86;100.00
13604;BME280;24578;48.264;11.436;2023-06-14T03:39:55;95715.66;;;8.90;100.00
13604;BME280;24578;48.264;11.436;2023-06-14T03:43:16;95711.00;;;8.95;100.00
13604;BME280;24578;48.264;11.436;2023-06-14T03:46:38;95722.75;;;9.10;100.00
13604;BME280;24578;48.264;11.436;2023-06-14T03:50:00;95725.13;;;9.48;100.00
13604;BME280;24578;48.264;11.436;2023-06-14T03:53:22;95721.94;;;10.01;100.00
13604;BME280;24578;48.264;11.436;2023-06-14T03:56:44;95720.91;;;10.59;100.00
13604;BME280;24578;48.264;11.436;2023-06-14T04:00:10;95723.31;;;11.14;100.00
13604;BME280;24578;48.264;11.436;2023-06-14T04:03:33;95725.47;;;11.61;100.00
13604;BME280;24578;48.264;11.436;2023-06-14T04:06:55;95725.06;;;11.97;100.00
13604;BME280;24578;48.264;11.436;2023-06-14T04:10:21;95713.84;;;12.57;100.00
13604;BME280;24578;48.264;11.436;2023-06-14T04:13:44;95729.38;;;13.25;100.00
13604;BME280;24578;48.264;11.436;2023-06-14T04:17:06;95728.09;;;13.97;100.00
13604;BME280;24578;48.264;11.436;2023-06-14T04:20:27;95733.44;;;14.69;100.00
13604;BME280;24578;48.264;11.436;2023-06-14T04:23:50;95724.00;;;15.31;97.20
13604;BME280;24578;48.264;11.436;2023-06-14T04:27:14;95729.25;;;16.00;88.10
13604;BME280;24578;48.264;11.436;2023-06-14T04:30:36;95723.22;;;16.51;78.39
13604;BME280;24578;48.264;11.436;2023-06-14T04:34:00;95728.16;;;16.87;75.03
13604;BME280;24578;48.264;11.436;2023-06-14T04:37:22;95730.78;;;17.28;69.20
13604;BME280;24578;48.264;11.436;2023-06-14T04:40:44;95735.13;;;17.69;65.93
13604;BME280;24578;48.264;11.436;2023-06-14T04:44:07;95732.75;;;18.39;60.28
13604;BME280;24578;48.264;11.436;2023-06-14T04:47:29;95734.78;;;18.83;57.59
13604;BME280;24578;48.264;11.436;2023-06-14T04:50:51;95735.59;;;19.45;52.07
13604;BME280;24578;48.264;11.436;2023-06-14T04:54:14;95744.78;;;19.95;50.67
13604;BME280;24578;48.264;11.436;2023-06-14T04:57:36;95737.94;;;20.45;48.64
13604;BME280;24578;48.264;11.436;2023-06-14T05:00:59;95742.63;;;21.08;45.54
13604;BME280;24578;48.264;11.436;2023-06-14T05:04:21;95746.94;;;21.66;41.93
13604;BME280;24578;48.264;11.436;2023-06-14T05:07:43;95745.22;;;21.80;40.00
13604;BME280;24578;48.264;11.436;2023-06-14T05:11:05;95748.91;;;22.28;38.58
13604;BME280;24578;48.264;11.436;2023-06-14T05:14:27;95746.41;;;22.61;37.65
13604;BME280;24578;48.264;11.436;2023-06-14T05:17:49;95746.66;;;22.87;37.32
13604;BME280;24578;48.264;11.436;2023-06-14T05:21:16;95752.44;;;23.24;35.51
13604;BME280;24578;48.264;11.436;2023-06-14T05:24:39;95753.44;;;23.50;35.38
13604;BME280;24578;48.264;11.436;2023-06-14T05:28:01;95750.16;;;23.81;34.41
13604;BME280;24578;48.264;11.436;2023-06-14T05:31:26;95759.22;;;24.26;33.53
13604;BME280;24578;48.264;11.436;2023-06-14T05:34:48;95752.28;;;24.77;32.91
13604;BME280;24578;48.264;11.436;2023-06-14T05:38:10;95755.31;;;25.13;30.69
13604;BME280;24578;48.264;11.436;2023-06-14T05:41:32;95753.53;;;25.06;31.11
13604;BME280;24578;48.264;11.436;2023-06-14T05:44:53;95755.78;;;25.03;30.93
13604;BME280;24578;48.264;11.436;2023-06-14T05:48:15;95755.50;;;25.68;30.47
13604;BME280;24578;48.264;11.436;2023-06-14T05:51:37;95752.81;;;26.31;29.48
13604;BME280;24578;48.264;11.436;2023-06-14T05:54:58;95754.44;;;26.51;29.13
13604;BME280;24578;48.264;11.436;2023-06-14T05:58:21;95749.59;;;26.78;28.39
13604;BME280;24578;48.264;11.436;2023-06-14T06:01:43;95756.69;;;26.96;28.05
13604;BME280;24578;48.264;11.436;2023-06-14T06:05:05;95739.09;;;27.38;27.39
13604;BME280;24578;48.264;11.436;2023-06-14T06:08:27;95744.91;;;27.46;28.69
13604;BME280;24578;48.264;11.436;2023-06-14T06:11:49;95745.41;;;27.67;27.47
13604;BME280;24578;48.264;11.436;2023-06-14T06:15:11;95750.28;;;28.35;26.85
13604;BME280;24578;48.264;11.436;2023-06-14T06:18:35;95757.06;;;27.78;26.59
13604;BME280;24578;48.264;11.436;2023-06-14T06:21:57;95759.69;;;28.02;27.43
13604;BME280;24578;48.264;11.436;2023-06-14T06:25:19;95758.25;;;28.47;25.51
13604;BME280;24578;48.264;11.436;2023-06-14T06:28:41;95764.56;;;28.57;25.46
13604;BME280;24578;48.264;11.436;2023-06-14T06:32:03;95766.84;;;28.25;25.33
13604;BME280;24578;48.264;11.436;2023-06-14T06:35:25;95768.47;;;28.38;25.54
13604;BME280;24578;48.264;11.436;2023-06-14T06:38:47;95771.25;;;28.07;26.16
13604;BME280;24578;48.264;11.436;2023-06-14T06:42:09;95766.31;;;27.52;26.50
13604;BME280;24578;48.264;11.436;2023-06-14T06:45:32;95773.94;;;28.19;25.72
13604;BME280;24578;48.264;11.436;2023-06-14T06:48:54;95768.34;;;29.02;25.53
13604;BME280;24578;48.264;11.436;2023-06-14T06:52:17;95767.06;;;29.90;24.58
13604;BME280;24578;48.264;11.436;2023-06-14T06:55:39;95774.00;;;30.08;24.04
13604;BME280;24578;48.264;11.436;2023-06-14T06:59:01;95771.81;;;30.67;23.93
13604;BME280;24578;48.264;11.436;2023-06-14T07:02:22;95778.16;;;30.88;23.64
13604;BME280;24578;48.264;11.436;2023-06-14T07:05:44;95771.34;;;30.31;23.23
13604;BME280;24578;48.264;11.436;2023-06-14T07:09:06;95773.31;;;29.96;23.87
13604;BME280;24578;48.264;11.436;2023-06-14T07:12:33;95764.28;;;29.97;24.40
13604;BME280;24578;48.264;11.436;2023-06-14T07:15:59;95762.72;;;30.95;23.64
13604;BME280;24578;48.264;11.436;2023-06-14T07:19:22;95779.00;;;31.81;22.56
13604;BME280;24578;48.264;11.436;2023-06-14T07:22:43;95781.59;;;32.19;22.26
13604;BME280;24578;48.264;11.436;2023-06-14T07:26:05;95780.00;;;32.82;21.83
13604;BME280;24578;48.264;11.436;2023-06-14T07:29:27;95787.19;;;32.76;20.95
13604;BME280;24578;48.264;11.436;2023-06-14T07:32:49;95782.19;;;32.26;21.40
13604;BME280;24578;48.264;11.436;2023-06-14T07:36:11;95795.47;;;32.69;21.40
13604;BME280;24578;48.264;11.436;2023-06-14T07:39:33;95784.88;;;33.05;21.32
13604;BME280;24578;48.264;11.436;2023-06-14T07:42:55;95791.28;;;32.99;21.41
13604;BME280;24578;48.264;11.436;2023-06-14T07:46:17;95790.53;;;33.14;20.80
13604;BME280;24578;48.264;11.436;2023-06-14T07:49:38;95790.25;;;33.21;20.56
13604;BME280;24578;48.264;11.436;2023-06-14T07:53:01;95795.09;;;33.29;20.51
13604;BME280;24578;48.264;11.436;2023-06-14T07:56:22;95790.25;;;33.26;21.19
13604;BME280;24578;48.264;11.436;2023-06-14T07:59:44;95792.47;;;33.39;20.38
13604;BME280;24578;48.264;11.436;2023-06-14T08:03:06;95788.91;;;33.80;19.85
13604;BME280;24578;48.264;11.436;2023-06-14T08:06:28;95789.75;;;33.86;20.81
13604;BME280;24578;48.264;11.436;2023-06-14T08:09:49;95789.22;;;33.99;18.94
13604;BME280;24578;48.264;11.436;2023-06-14T08:13:11;95781.03;;;34.46;18.94
13604;BME280;24578;48.264;11.436;2023-06-14T08:16:33;95792.03;;;34.44;19.49
13604;BME280;24578;48.264;11.436;2023-06-14T08:19:55;95790.94;;;34.56;18.72
13604;BME280;24578;48.264;11.436;2023-06-14T08:23:18;95795.38;;;33.95;19.23
13604;BME280;24578;48.264;11.436;2023-06-14T08:26:42;95791.59;;;33.85;19.44
13604;BME280;24578;48.264;11.436;2023-06-14T08:30:04;95795.38;;;33.95;19.53
13604;BME280;24578;48.264;11.436;2023-06-14T08:33:26;95803.28;;;34.52;19.92
13604;BME280;24578;48.264;11.436;2023-06-14T08:36:48;95798.22;;;34.45;19.78
13604;BME280;24578;48.264;11.436;2023-06-14T08:43:40;95810.69;;;33.68;19.19
13604;BME280;24578;48.264;11.436;2023-06-14T08:47:02;95814.19;;;33.43;19.22
13604;BME280;24578;48.264;11.436;2023-06-14T08:50:27;95818.19;;;33.92;19.82
13604;BME280;24578;48.264;11.436;2023-06-14T08:53:54;95816.97;;;34.60;19.21
13604;BME280;24578;48.264;11.436;2023-06-14T08:57:20;95810.22;;;34.63;18.56
13604;BME280;24578;48.264;11.436;2023-06-14T09:00:43;95808.81;;;34.76;18.13
13604;BME280;24578;48.264;11.436;2023-06-14T09:04:05;95807.06;;;34.51;19.03
13604;BME280;24578;48.264;11.436;2023-06-14T09:07:27;95812.72;;;35.04;18.44
13604;BME280;24578;48.264;11.436;2023-06-14T09:10:50;95799.56;;;35.37;18.61
13604;BME280;24578;48.264;11.436;2023-06-14T09:14:12;95802.91;;;34.79;18.02
13604;BME280;24578;48.264;11.436;2023-06-14T09:17:37;95816.63;;;32.65;19.61
13604;BME280;24578;48.264;11.436;2023-06-14T09:20:59;95830.00;;;30.92;21.11
13604;BME280;24578;48.264;11.436;2023-06-14T09:24:23;95832.09;;;30.85;22.15
13604;BME280;24578;48.264;11.436;2023-06-14T09:27:47;95828.63;;;31.67;20.94
13604;BME280;24578;48.264;11.436;2023-06-14T09:31:10;95821.94;;;32.07;21.15
13604;BME280;24578;48.264;11.436;2023-06-14T09:34:34;95838.34;;;31.78;20.46
13604;BME280;24578;48.264;11.436;2023-06-14T09:37:56;95836.25;;;30.98;21.47
13604;BME280;24578;48.264;11.436;2023-06-14T09:41:18;95837.69;;;31.98;19.90
13604;BME280;24578;48.264;11.436;2023-06-14T09:44:40;95831.63;;;32.61;20.05
13604;BME280;24578;48.264;11.436;2023-06-14T09:48:02;95831.94;;;32.75;20.23
13604;BME280;24578;48.264;11.436;2023-06-14T09:51:26;95828.78;;;32.84;20.76
13604;BME280;24578;48.264;11.436;2023-06-14T09:54:48;95843.19;;;32.72;19.22
13604;BME280;24578;48.264;11.436;2023-06-14T09:58:16;95832.56;;;32.93;19.52
13604;BME280;24578;48.264;11.436;2023-06-14T10:01:45;95831.94;;;32.80;19.98
13604;BME280;24578;48.264;11.436;2023-06-14T10:05:09;95832.09;;;33.22;19.22
13604;BME280;24578;48.264;11.436;2023-06-14T10:08:36;95826.22;;;33.56;18.76
13604;BME280;24578;48.264;11.436;2023-06-14T10:11:58;95827.03;;;33.57;17.61
13604;BME280;24578;48.264;11.436;2023-06-14T10:19:10;95821.59;;;34.39;17.28
13604;BME280;24578;48.264;11.436;2023-06-14T10:22:39;95817.63;;;34.06;16.94
13604;BME280;24578;48.264;11.436;2023-06-14T10:26:04;95830.44;;;33.10;17.73
13604;BME280;24578;48.264;11.436;2023-06-14T10:29:27;95816.50;;;32.93;18.57
13604;BME280;24578;48.264;11.436;2023-06-14T10:33:08;95833.66;;;33.13;17.96
13604;BME280;24578;48.264;11.436;2023-06-14T10:36:31;95825.66;;;33.23;18.30
13604;BME280;24578;48.264;11.436;2023-06-14T10:39:56;95811.75;;;33.62;17.59
13604;BME280;24578;48.264;11.436;2023-06-14T10:43:22;95819.78;;;33.42;18.41
13604;BME280;24578;48.264;11.436;2023-06-14T10:46:48;95811.72;;;34.09;17.62
13604;BME280;24578;48.264;11.436;2023-06-14T10:50:11;95815.75;;;33.29;17.94
13604;BME280;24578;48.264;11.436;2023-06-14T10:53:40;95812.81;;;33.35;18.81
13604;BME280;24578;48.264;11.436;2023-06-14T10:57:06;95824.16;;;32.15;19.73
13604;BME280;24578;48.264;11.436;2023-06-14T11:00:29;95818.72;;;29.67;20.46
13604;BME280;24578;48.264;11.436;2023-06-14T11:03:52;95825.72;;;30.64;21.28
13604;BME280;24578;48.264;11.436;2023-06-14T11:07:48;95814.22;;;31.73;19.86
13604;BME280;24578;48.264;11.436;2023-06-14T11:11:17;95828.16;;;31.75;19.98
13604;BME280;24578;48.264;11.436;2023-06-14T11:14:39;95804.94;;;32.92;19.20
13604;BME280;24578;48.264;11.436;2023-06-14T11:18:06;95812.75;;;33.25;17.69
13604;BME280;24578;48.264;11.436;2023-06-14T11:21:28;95796.69;;;34.13;17.80
13604;BME280;24578;48.264;11.436;2023-06-14T11:24:52;95806.38;;;33.98;18.31
13604;BME280;24578;48.264;11.436;2023-06-14T11:28:14;95807.47;;;33.66;17.81
13604;BME280;24578;48.264;11.436;2023-06-14T11:31:36;95805.31;;;33.89;17.88
13604;BME280;24578;48.264;11.436;2023-06-14T11:34:58;95809.03;;;33.88;17.53
13604;BME280;24578;48.264;11.436;2023-06-14T11:38:23;95812.31;;;33.54;17.00
13604;BME280;24578;48.264;11.436;2023-06-14T11:41:45;95800.72;;;33.28;18.03
13604;BME280;24578;48.264;11.436;2023-06-14T11:45:09;95803.63;;;33.10;18.12
13604;BME280;24578;48.264;11.436;2023-06-14T11:48:42;95801.31;;;32.50;18.56
13604;BME280;24578;48.264;11.436;2023-06-14T11:52:04;95798.31;;;32.37;18.82
13604;BME280;24578;48.264;11.436;2023-06-14T11:55:26;95787.84;;;33.24;18.49
13604;BME280;24578;48.264;11.436;2023-06-14T11:58:48;95789.16;;;32.96;18.56
13604;BME280;24578;48.264;11.436;2023-06-14T12:02:14;95800.44;;;31.54;19.84
13604;BME280;24578;48.264;11.436;2023-06-14T12:05:36;95800.91;;;30.07;19.72
13604;BME280;24578;48.264;11.436;2023-06-14T12:08:58;95802.19;;;28.49;21.36
13604;BME280;24578;48.264;11.436;2023-06-14T12:12:24;95805.47;;;29.09;21.07
13604;BME280;24578;48.264;11.436;2023-06-14T12:15:54;95796.97;;;30.10;20.44
13604;BME280;24578;48.264;11.436;2023-06-14T12:19:17;95797.72;;;30.94;18.46
13604;BME280;24578;48.264;11.436;2023-06-14T12:22:50;95794.53;;;31.84;20.29
13604;BME280;24578;48.264;11.436;2023-06-14T12:26:15;95799.47;;;32.08;19.66
13604;BME280;24578;48.264;11.436;2023-06-14T12:29:37;95794.78;;;32.26;19.81
13604;BME280;24578;48.264;11.436;2023-06-14T12:32:59;95795.22;;;32.71;18.88
13604;BME280;24578;48.264;11.436;2023-06-14T12:36:22;95789.69;;;32.98;18.76
13604;BME280;24578;48.264;11.436;2023-06-14T12:39:43;95791.16;;;32.58;17.71
13604;BME280;24578;48.264;11.436;2023-06-14T12:43:05;95795.50;;;31.73;18.03
13604;BME280;24578;48.264;11.436;2023-06-14T12:46:27;95789.38;;;31.12;19.23
13604;BME280;24578;48.264;11.436;2023-06-14T12:49:49;95792.13;;;30.95;18.37
13604;BME280;24578;48.264;11.436;2023-06-14T12:53:10;95799.22;;;31.12;19.02
13604;BME280;24578;48.264;11.436;2023-06-14T12:56:32;95793.28;;;32.02;18.95
13604;BME280;24578;48.264;11.436;2023-06-14T12:59:54;95805.84;;;33.50;17.86
13604;BME280;24578;48.264;11.436;2023-06-14T13:03:16;95796.59;;;32.25;18.59
13604;BME280;24578;48.264;11.436;2023-06-14T13:06:38;95808.66;;;30.48;20.00
13604;BME280;24578;48.264;11.436;2023-06-14T13:09:59;95806.56;;;29.25;21.11
13604;BME280;24578;48.264;11.436;2023-06-14T13:13:21;95817.59;;;28.35;22.33
13604;BME280;24578;48.264;11.436;2023-06-14T13:16:43;95815.19;;;27.74;22.60
13604;BME280;24578;48.264;11.436;2023-06-14T13:20:08;95809.41;;;28.37;22.25
13604;BME280;24578;48.264;11.436;2023-06-14T13:23:30;95810.25;;;30.27;19.25
13604;BME280;24578;48.264;11.436;2023-06-14T13:26:52;95795.81;;;31.77;17.90
13604;BME280;24578;48.264;11.436;2023-06-14T13:30:14;95802.19;;;32.13;17.63
13604;BME280;24578;48.264;11.436;2023-06-14T13:33:36;95793.56;;;32.59;17.33
13604;BME280;24578;48.264;11.436;2023-06-14T13:36:58;95788.78;;;32.08;17.47
13604;BME280;24578;48.264;11.436;2023-06-14T13:40:20;95796.19;;;31.96;18.21
13604;BME280;24578;48.264;11.436;2023-06-14T13:43:42;95791.31;;;31.82;18.27
13604;BME280;24578;48.264;11.436;2023-06-14T13:47:04;95784.59;;;31.47;17.80
13604;BME280;24578;48.264;11.436;2023-06-14T13:50:25;95784.69;;;31.25;17.79
13604;BME280;24578;48.264;11.436;2023-06-14T13:53:48;95782.22;;;31.88;17.54
13604;BME280;24578;48.264;11.436;2023-06-14T13:57:10;95789.22;;;31.57;19.87
13604;BME280;24578;48.264;11.436;2023-06-14T14:00:34;95775.41;;;31.33;19.92
13604;BME280;24578;48.264;11.436;2023-06-14T14:03:57;95784.94;;;31.94;20.28
13604;BME280;24578;48.264;11.436;2023-06-14T14:07:20;95781.25;;;32.58;18.96
13604;BME280;24578;48.264;11.436;2023-06-14T14:10:42;95797.91;;;32.76;18.73
13604;BME280;24578;48.264;11.436;2023-06-14T14:14:03;95786.44;;;32.86;17.77
13604;BME280;24578;48.264;11.436;2023-06-14T14:17:26;95796.09;;;31.80;18.55
13604;BME280;24578;48.264;11.436;2023-06-14T14:20:48;95785.16;;;30.94;19.84
13604;BME280;24578;48.264;11.436;2023-06-14T14:24:10;95776.56;;;29.64;21.33
13604;BME280;24578;48.264;11.436;2023-06-14T14:27:32;95788.56;;;28.86;22.80
13604;BME280;24578;48.264;11.436;2023-06-14T14:30:53;95784.56;;;28.31;23.72
13604;BME280;24578;48.264;11.436;2023-06-14T14:34:15;95787.81;;;27.74;24.02
13604;BME280;24578;48.264;11.436;2023-06-14T14:37:37;95792.81;;;27.40;23.37
13604;BME280;24578;48.264;11.436;2023-06-14T14:40:59;95799.19;;;26.78;24.96
13604;BME280;24578;48.264;11.436;2023-06-14T14:44:20;95803.50;;;26.41;25.49
13604;BME280;24578;48.264;11.436;2023-06-14T14:47:42;95809.31;;;26.32;24.95
13604;BME280;24578;48.264;11.436;2023-06-14T14:51:04;95806.09;;;26.29;24.41
13604;BME280;24578;48.264;11.436;2023-06-14T14:54:26;95804.47;;;26.28;24.86
13604;BME280;24578;48.264;11.436;2023-06-14T14:57:50;95799.94;;;26.10;25.77
13604;BME280;24578;48.264;11.436;2023-06-14T15:01:12;95798.94;;;26.11;24.98
13604;BME280;24578;48.264;11.436;2023-06-14T15:04:34;95796.69;;;25.90;26.30
13604;BME280;24578;48.264;11.436;2023-06-14T15:07:56;95802.41;;;25.87;26.41
13604;BME280;24578;48.264;11.436;2023-06-14T15:11:17;95799.59;;;25.81;27.35
13604;BME280;24578;48.264;11.436;2023-06-14T15:14:39;95810.31;;;25.68;26.53
13604;BME280;24578;48.264;11.436;2023-06-14T15:18:02;95812.78;;;25.37;26.11
13604;BME280;24578;48.264;11.436;2023-06-14T15:21:23;95815.47;;;25.31;27.24
13604;BME280;24578;48.264;11.436;2023-06-14T15:24:46;95814.81;;;25.10;26.72
13604;BME280;24578;48.264;11.436;2023-06-14T15:28:07;95814.72;;;24.85;26.79
13604;BME280;24578;48.264;11.436;2023-06-14T15:31:31;95802.13;;;24.80;27.62
13604;BME280;24578;48.264;11.436;2023-06-14T15:34:52;95817.41;;;24.78;27.77
13604;BME280;24578;48.264;11.436;2023-06-14T15:38:14;95816.81;;;24.76;27.34
13604;BME280;24578;48.264;11.436;2023-06-14T15:41:36;95816.22;;;24.60;27.46
13604;BME280;24578;48.264;11.436;2023-06-14T15:44:58;95817.50;;;24.51;27.66
13604;BME280;24578;48.264;11.436;2023-06-14T15:48:19;95817.03;;;24.61;27.60
13604;BME280;24578;48.264;11.436;2023-06-14T15:51:41;95807.34;;;24.48;27.63
13604;BME280;24578;48.264;11.436;2023-06-14T15:55:03;95802.91;;;24.28;27.30
13604;BME280;24578;48.264;11.436;2023-06-14T15:58:25;95811.25;;;24.25;27.48
13604;BME280;24578;48.264;11.436;2023-06-14T16:01:46;95808.88;;;24.10;27.34
13604;BME280;24578;48.264;11.436;2023-06-14T16:05:08;95807.03;;;24.04;27.14
13604;BME280;24578;48.264;11.436;2023-06-14T16:08:30;95811.31;;;23.85;27.82
13604;BME280;24578;48.264;11.436;2023-06-14T16:11:52;95814.78;;;23.72;28.50
13604;BME280;24578;48.264;11.436;2023-06-14T16:15:13;95825.13;;;23.60;28.51
13604;BME280;24578;48.264;11.436;2023-06-14T16:18:36;95819.06;;;23.53;29.27
13604;BME280;24578;48.264;11.436;2023-06-14T16:21:58;95825.75;;;23.49;29.70
13604;BME280;24578;48.264;11.436;2023-06-14T16:25:20;95824.94;;;23.55;30.34
13604;BME280;24578;48.264;11.436;2023-06-14T16:28:43;95828.78;;;23.52;31.21
13604;BME280;24578;48.264;11.436;2023-06-14T16:32:05;95824.13;;;23.48;31.29
13604;BME280;24578;48.264;11.436;2023-06-14T16:35:27;95835.50;;;23.41;31.55
13604;BME280;24578;48.264;11.436;2023-06-14T16:38:49;95836.69;;;23.32;32.12
13604;BME280;24578;48.264;11.436;2023-06-14T16:42:11;95845.19;;;23.14;31.68
13604;BME280;24578;48.264;11.436;2023-06-14T16:45:33;95853.25;;;22.99;31.85
13604;BME280;24578;48.264;11.436;2023-06-14T16:48:55;95856.06;;;22.84;32.76
13604;BME280;24578;48.264;11.436;2023-06-14T16:52:17;95850.16;;;22.82;32.66
13604;BME280;24578;48.264;11.436;2023-06-14T16:55:38;95859.28;;;22.79;33.32
13604;BME280;24578;48.264;11.436;2023-06-14T16:59:00;95872.81;;;22.63;33.54
13604;BME280;24578;48.264;11.436;2023-06-14T17:02:22;95872.34;;;22.53;33.73
13604;BME280;24578;48.264;11.436;2023-06-14T17:05:57;95869.06;;;22.50;35.00
13604;BME280;24578;48.264;11.436;2023-06-14T17:09:19;95871.63;;;22.37;35.40
13604;BME280;24578;48.264;11.436;2023-06-14T17:12:41;95876.03;;;22.30;35.85
13604;BME280;24578;48.264;11.436;2023-06-14T17:16:03;95875.97;;;22.16;35.41
13604;BME280;24578;48.264;11.436;2023-06-14T17:19:26;95886.84;;;22.07;35.17
13604;BME280;24578;48.264;11.436;2023-06-14T17:22:48;95878.25;;;21.98;35.68
13604;BME280;24578;48.264;11.436;2023-06-14T17:26:10;95880.66;;;21.93;35.74
13604;BME280;24578;48.264;11.436;2023-06-14T17:29:31;95884.56;;;21.75;36.27
13604;BME280;24578;48.264;11.436;2023-06-14T17:32:53;95888.97;;;21.68;36.99
13604;BME280;24578;48.264;11.436;2023-06-14T17:36:16;95895.88;;;21.69;36.42
13604;BME280;24578;48.264;11.436;2023-06-14T17:39:37;95893.34;;;21.60;35.86
13604;BME280;24578;48.264;11.436;2023-06-14T17:43:01;95907.25;;;21.54;35.86
13604;BME280;24578;48.264;11.436;2023-06-14T17:46:23;95908.00;;;21.48;36.34
13604;BME280;24578;48.264;11.436;2023-06-14T17:49:44;95907.28;;;21.39;36.05